31.2°F
Current conditions from King Hill
Updated every 5 minutes
 
  Friday October 31, 2014

Station Historical Data
Daily Summary for April 27, 2012 Units:  Metric    English   Both
« Previous Day
Next Day »
Daily Weekly Monthly Yearly Custom
  High: Low: Average:
Temperature: 7.4 °C -1.8 °C 1.4 °C
Dew Point: 6.6 °C -6.8 °C -1.8 °C
Humidity: 95% 66% 80%
Wind Speed: 25.7km/h 1.6km/h 12.9km/h
Wind Gust: 43.5km/h - -
Wind- - NW
Pressure: 1018.2 hPa 998.9 hPa -
Precipitation: 6.9 mm    
Historical Graphs
 
 
Tabular Data for April 27, 2012
Time Temperature Dew Point Pressure Wind Wind Speed Wind Gust Humidity Daily Rainfall
00:04 7.3 °C 6.4 °C 998.9 hPa SSW 3.2 km/h 9.7 km/h 94% 0 mm
00:09 7.3 °C 6.4 °C 998.9 hPa SSW 3.2 km/h 9.7 km/h 94% 0 mm
00:14 7.3 °C 6.4 °C 998.9 hPa SSW 3.2 km/h 8 km/h 94% 0.3 mm
00:19 7.3 °C 6.4 °C 998.9 hPa Calm   11.3 km/h 94% 0.3 mm
00:24 7.3 °C 6.4 °C 998.9 hPa Calm   11.3 km/h 94% 0.3 mm
00:29 7.3 °C 6.4 °C 999.2 hPa Calm   11.3 km/h 94% 0.3 mm
00:34 7.3 °C 6.4 °C 999.2 hPa WSW 1.6 km/h 11.3 km/h 94% 0.3 mm
00:39 7.3 °C 6.4 °C 999.2 hPa Calm   8 km/h 94% 0.3 mm
00:49 7.4 °C 6.5 °C 999.2 hPa Calm   9.7 km/h 94% 0.8 mm
00:54 7.4 °C 6.6 °C 999.2 hPa WSW 1.6 km/h 6.4 km/h 94% 0.8 mm
00:59 7.4 °C 6.6 °C 999.2 hPa WNW 3.2 km/h 11.3 km/h 94% 0.8 mm
01:04 7.4 °C 6.6 °C 999.2 hPa WNW 4.8 km/h 11.3 km/h 94% 1.3 mm
01:09 7.4 °C 6.5 °C 999.2 hPa WNW 3.2 km/h 11.3 km/h 94% 1.8 mm
01:14 7.3 °C 6.6 °C 999.2 hPa NW 3.2 km/h 11.3 km/h 95% 2.3 mm
01:19 7.3 °C 6.6 °C 999.5 hPa WNW 9.7 km/h 16.1 km/h 95% 2.5 mm
01:24 7.3 °C 6.6 °C 999.2 hPa WNW 8 km/h 16.1 km/h 95% 2.8 mm
01:29 7.2 °C 6.5 °C 999.5 hPa WNW 4.8 km/h 16.1 km/h 95% 3 mm
01:34 7.1 °C 6.2 °C 999.5 hPa NW 8 km/h 16.1 km/h 94% 3.3 mm
01:39 6.9 °C 6 °C 999.5 hPa WNW 11.3 km/h 20.9 km/h 94% 3.8 mm
01:44 6.8 °C 5.9 °C 999.5 hPa NW 6.4 km/h 20.9 km/h 94% 3.8 mm
01:49 6.7 °C 5.8 °C 999.5 hPa NW 4.8 km/h 24.1 km/h 94% 3.8 mm
01:54 6.6 °C 5.7 °C 999.5 hPa NW 11.3 km/h 24.1 km/h 94% 3.8 mm
01:59 6.6 °C 5.7 °C 999.5 hPa WNW 9.7 km/h 24.1 km/h 94% 3.8 mm
02:04 6.5 °C 5.6 °C 999.5 hPa NW 12.9 km/h 24.1 km/h 94% 3.8 mm
02:09 6.4 °C 5.6 °C 999.5 hPa WNW 12.9 km/h 22.5 km/h 94% 3.8 mm
02:14 6.4 °C 5.5 °C 999.5 hPa NW 9.7 km/h 22.5 km/h 94% 3.8 mm
02:25 6.1 °C 5.2 °C 999.5 hPa WNW 11.3 km/h 24.1 km/h 94% 3.8 mm
02:34 5.7 °C 4.7 °C 999.9 hPa WNW 11.3 km/h 30.6 km/h 93% 3.8 mm
02:39 5.6 °C 4.6 °C 999.9 hPa WNW 6.4 km/h 24.1 km/h 93% 3.8 mm
02:44 5.5 °C 4.2 °C 999.9 hPa WNW 11.3 km/h 17.7 km/h 91% 3.8 mm
02:49 5.5 °C 4 °C 999.9 hPa WNW 9.7 km/h 17.7 km/h 90% 3.8 mm
02:54 5.4 °C 3.8 °C 1000.2 hPa Calm   19.3 km/h 89% 3.8 mm
02:59 5.4 °C 3.7 °C 1000.2 hPa NW 4.8 km/h 19.3 km/h 89% 3.8 mm
03:04 5.3 °C 3.6 °C 1000.2 hPa NW 8 km/h 20.9 km/h 89% 3.8 mm
03:09 5.2 °C 3.3 °C 1000.6 hPa WNW 11.3 km/h 22.5 km/h 88% 3.8 mm
03:14 5.1 °C 3.2 °C 1000.6 hPa NW 8 km/h 22.5 km/h 88% 3.8 mm
03:19 4.7 °C 2.9 °C 1000.9 hPa WNW 12.9 km/h 24.1 km/h 88% 4.1 mm
03:24 4.4 °C 2.6 °C 1000.9 hPa NW 14.5 km/h 25.7 km/h 88% 4.1 mm
03:29 4.2 °C 2.3 °C 1000.9 hPa NW 12.9 km/h 32.2 km/h 88% 4.1 mm
03:34 4 °C 2.2 °C 1000.9 hPa WNW 9.7 km/h 32.2 km/h 88% 4.1 mm
03:39 3.9 °C 2.2 °C 1000.9 hPa NW 9.7 km/h 20.9 km/h 89% 4.1 mm
03:44 3.8 °C 2.1 °C 1001.2 hPa WNW 14.5 km/h 27.4 km/h 89% 4.1 mm
03:49 3.7 °C 2 °C 1001.2 hPa WNW 12.9 km/h 27.4 km/h 89% 4.1 mm
03:54 3.7 °C 2 °C 1001.2 hPa NW 14.5 km/h 29 km/h 89% 4.1 mm
03:59 3.6 °C 1.9 °C 1001.2 hPa NW 9.7 km/h 29 km/h 89% 4.1 mm
04:04 3.5 °C 1.8 °C 1001.2 hPa NW 9.7 km/h 29 km/h 89% 4.1 mm
04:09 3.5 °C 2 °C 1001.2 hPa NW 11.3 km/h 20.9 km/h 90% 4.1 mm
04:14 3.4 °C 1.9 °C 1001.2 hPa WNW 11.3 km/h 20.9 km/h 90% 4.1 mm
04:19 3.4 °C 1.7 °C 1001.2 hPa NW 12.9 km/h 22.5 km/h 89% 4.1 mm
04:25 3.3 °C 1.7 °C 1001.2 hPa WNW 9.7 km/h 29 km/h 89% 4.1 mm
04:34 3.2 °C 1.7 °C 1001.6 hPa WNW 9.7 km/h 24.1 km/h 90% 4.1 mm
04:44 3.2 °C 1.6 °C 1001.6 hPa WNW 11.3 km/h 22.5 km/h 89% 4.1 mm
04:49 3.1 °C 1.5 °C 1001.6 hPa NW 14.5 km/h 24.1 km/h 89% 4.1 mm
04:54 3.1 °C 1.4 °C 1001.6 hPa NW 9.7 km/h 24.1 km/h 89% 4.1 mm
04:59 2.9 °C 1.3 °C 1001.6 hPa NW 11.3 km/h 22.5 km/h 89% 4.1 mm
05:04 2.9 °C 1.3 °C 1001.6 hPa NW 9.7 km/h 22.5 km/h 89% 4.3 mm
05:09 2.8 °C 1.2 °C 1001.9 hPa NW 14.5 km/h 30.6 km/h 89% 4.3 mm
05:14 2.7 °C 1.1 °C 1001.9 hPa NW 14.5 km/h 33.8 km/h 89% 4.3 mm
05:19 2.7 °C 1.1 °C 1001.9 hPa NW 11.3 km/h 33.8 km/h 89% 4.6 mm
05:24 2.6 °C 0.9 °C 1001.9 hPa NW 9.7 km/h 27.4 km/h 89% 4.6 mm
05:29 2.4 °C 0.8 °C 1001.9 hPa NW 12.9 km/h 27.4 km/h 89% 4.8 mm
05:34 2.4 °C 0.8 °C 1001.9 hPa NW 11.3 km/h 25.7 km/h 89% 4.8 mm
05:39 2.4 °C 0.8 °C 1001.9 hPa NW 14.5 km/h 25.7 km/h 89% 4.8 mm
05:44 2.4 °C 0.9 °C 1002.3 hPa WNW 9.7 km/h 25.7 km/h 90% 5.1 mm
05:49 2.3 °C 0.9 °C 1002.3 hPa NW 16.1 km/h 27.4 km/h 90% 5.1 mm
05:54 2.2 °C 0.6 °C 1002.3 hPa NW 12.9 km/h 27.4 km/h 89% 5.3 mm
05:59 2.3 °C 0.7 °C 1002.3 hPa NW 16.1 km/h 29 km/h 89% 5.3 mm
06:04 2.2 °C 0.6 °C 1002.6 hPa NW 12.9 km/h 29 km/h 89% 5.3 mm
06:09 2.2 °C 0.8 °C 1002.6 hPa NW 11.3 km/h 25.7 km/h 90% 5.3 mm
06:14 2.1 °C 0.7 °C 1002.6 hPa NW 17.7 km/h 30.6 km/h 90% 5.3 mm
06:19 2 °C 0.4 °C 1002.6 hPa NW 19.3 km/h 32.2 km/h 89% 5.6 mm
06:24 1.9 °C 0.3 °C 1002.6 hPa NW 16.1 km/h 32.2 km/h 89% 5.6 mm
06:29 1.8 °C 0.2 °C 1002.6 hPa NW 6.4 km/h 29 km/h 89% 5.6 mm
06:34 1.7 °C 0.1 °C 1002.6 hPa NW 9.7 km/h 29 km/h 89% 5.6 mm
06:39 1.7 °C 0.1 °C 1002.9 hPa NW 11.3 km/h 29 km/h 89% 5.6 mm
06:44 1.6 °C -0.1 °C 1002.9 hPa WNW 9.7 km/h 29 km/h 89% 5.6 mm
06:49 1.4 °C -0.2 °C 1003.3 hPa WNW 12.9 km/h 29 km/h 89% 5.6 mm
06:54 1.3 °C -0.4 °C 1003.3 hPa NW 9.7 km/h 27.4 km/h 88% 5.6 mm
06:59 1.3 °C -0.4 °C 1003.3 hPa NW 11.3 km/h 27.4 km/h 88% 5.6 mm
07:04 1.2 °C -0.6 °C 1003.6 hPa WNW 17.7 km/h 27.4 km/h 88% 5.6 mm
07:09 1.1 °C -0.8 °C 1003.6 hPa WNW 11.3 km/h 25.7 km/h 87% 5.6 mm
07:14 1 °C -0.9 °C 1003.6 hPa NW 9.7 km/h 30.6 km/h 87% 5.6 mm
07:19 0.9 °C -1 °C 1003.6 hPa NW 12.9 km/h 30.6 km/h 87% 5.6 mm
07:24 0.8 °C -1.1 °C 1003.6 hPa NW 16.1 km/h 29 km/h 87% 5.6 mm
07:29 0.8 °C -1.2 °C 1003.9 hPa NW 9.7 km/h 29 km/h 86% 5.6 mm
07:34 0.8 °C -1.3 °C 1003.9 hPa WNW 20.9 km/h 33.8 km/h 86% 5.6 mm
07:39 0.8 °C -1.6 °C 1003.9 hPa WNW 17.7 km/h 37 km/h 84% 5.6 mm
07:49 0.7 °C -1.7 °C 1004.3 hPa NW 16.1 km/h 38.6 km/h 84% 5.6 mm
07:54 0.6 °C -1.8 °C 1004.3 hPa NW 19.3 km/h 40.2 km/h 84% 5.6 mm
07:59 0.6 °C -1.8 °C 1004.3 hPa WNW 17.7 km/h 40.2 km/h 84% 5.6 mm
08:04 0.7 °C -1.7 °C 1004.3 hPa NW 12.9 km/h 40.2 km/h 84% 5.6 mm
08:09 0.6 °C -1.8 °C 1004.6 hPa NW 22.5 km/h 33.8 km/h 84% 5.6 mm
08:14 0.6 °C -1.8 °C 1004.6 hPa NW 16.1 km/h 33.8 km/h 84% 5.6 mm
08:19 0.5 °C -2.1 °C 1004.6 hPa NW 17.7 km/h 33.8 km/h 83% 5.6 mm
08:24 0.5 °C -2.1 °C 1004.6 hPa NW 17.7 km/h 30.6 km/h 83% 5.6 mm
08:29 0.4 °C -2.1 °C 1005 hPa WNW 16.1 km/h 35.4 km/h 83% 5.6 mm
08:39 0.4 °C -2.1 °C 1005 hPa NW 14.5 km/h 37 km/h 83% 5.6 mm
08:44 0.4 °C -2.3 °C 1005.3 hPa NW 11.3 km/h 29 km/h 82% 5.6 mm
08:49 0.4 °C -2.5 °C 1005.3 hPa WNW 19.3 km/h 29 km/h 81% 5.6 mm
08:54 0.4 °C -2.5 °C 1005.3 hPa NW 9.7 km/h 32.2 km/h 81% 5.6 mm
08:59 0.4 °C -2.5 °C 1005.3 hPa NW 14.5 km/h 32.2 km/h 81% 5.6 mm
09:04 0.4 °C -2.7 °C 1005.3 hPa NW 12.9 km/h 29 km/h 80% 5.6 mm
09:09 0.4 °C -2.7 °C 1005.3 hPa NW 9.7 km/h 29 km/h 80% 5.6 mm
09:14 0.3 °C -2.7 °C 1005.3 hPa NW 11.3 km/h 30.6 km/h 80% 5.6 mm
09:19 0.3 °C -2.7 °C 1005.6 hPa NW 17.7 km/h 32.2 km/h 80% 5.6 mm
09:24 0.4 °C -2.8 °C 1005.6 hPa WNW 20.9 km/h 32.2 km/h 79% 5.6 mm
09:34 0.4 °C -2.9 °C 1005.3 hPa NW 19.3 km/h 37 km/h 78% 5.6 mm
09:39 0.4 °C -3.1 °C 1005.6 hPa NW 14.5 km/h 37 km/h 77% 5.6 mm
09:44 0.5 °C -3.1 °C 1005.6 hPa NW 14.5 km/h 27.4 km/h 77% 5.6 mm
09:49 0.6 °C -3 °C 1005.6 hPa WNW 19.3 km/h 32.2 km/h 77% 5.6 mm
09:54 0.7 °C -2.9 °C 1006 hPa NW 17.7 km/h 35.4 km/h 77% 5.6 mm
09:59 0.7 °C -3.1 °C 1006 hPa NW 17.7 km/h 41.8 km/h 76% 5.6 mm
10:04 0.8 °C -2.8 °C 1006 hPa WNW 14.5 km/h 41.8 km/h 77% 5.6 mm
10:09 0.8 °C -2.8 °C 1006 hPa NW 22.5 km/h 41.8 km/h 77% 5.6 mm
10:14 0.8 °C -2.7 °C 1006 hPa WNW 11.3 km/h 41.8 km/h 77% 5.6 mm
10:19 0.9 °C -2.6 °C 1006 hPa WNW 9.7 km/h 29 km/h 77% 5.6 mm
10:24 1 °C -2.8 °C 1006.3 hPa WNW 20.9 km/h 38.6 km/h 76% 5.6 mm
10:29 1 °C -2.8 °C 1006.3 hPa WNW 14.5 km/h 38.6 km/h 76% 5.6 mm
10:34 1 °C -2.8 °C 1006.3 hPa NW 16.1 km/h 30.6 km/h 76% 5.6 mm
10:39 1.1 °C -2.5 °C 1006.3 hPa NW 16.1 km/h 30.6 km/h 77% 5.6 mm
10:44 1.1 °C -2.5 °C 1006.7 hPa WNW 19.3 km/h 30.6 km/h 77% 5.6 mm
10:50 0.9 °C -2.8 °C 1006.7 hPa WNW 25.7 km/h 43.5 km/h 76% 5.6 mm
10:59 1.1 °C -2.5 °C 1006.7 hPa WNW 22.5 km/h 32.2 km/h 77% 5.6 mm
11:09 0.7 °C -2.7 °C 1007.3 hPa NW 19.3 km/h 38.6 km/h 78% 5.6 mm
11:14 0.4 °C -2.6 °C 1007 hPa NW 16.1 km/h 35.4 km/h 80% 5.6 mm
11:19 0.5 °C -2.4 °C 1007.3 hPa NW 16.1 km/h 35.4 km/h 81% 5.6 mm
11:24 0.6 °C -2.3 °C 1007.3 hPa NW 19.3 km/h 33.8 km/h 81% 5.6 mm
11:29 0.5 °C -2.4 °C 1007.3 hPa WNW 19.3 km/h 35.4 km/h 81% 5.6 mm
11:34 0.3 °C -2.4 °C 1007.3 hPa NW 19.3 km/h 38.6 km/h 82% 5.6 mm
11:39 0.4 °C -2.3 °C 1007.7 hPa NW 19.3 km/h 38.6 km/h 82% 5.6 mm
11:44 0.3 °C -2.6 °C 1007.7 hPa WNW 25.7 km/h 40.2 km/h 81% 5.6 mm
11:49 0.2 °C -2.5 °C 1007.7 hPa NW 12.9 km/h 40.2 km/h 82% 5.6 mm
11:54 0.1 °C -2.6 °C 1007.7 hPa WNW 14.5 km/h 33.8 km/h 82% 5.6 mm
11:59 0 °C -2.7 °C 1008 hPa WNW 17.7 km/h 33.8 km/h 82% 5.6 mm
12:04 0 °C -2.7 °C 1008 hPa WNW 17.7 km/h 33.8 km/h 82% 5.6 mm
12:09 0 °C -2.7 °C 1008 hPa WNW 20.9 km/h 35.4 km/h 82% 5.6 mm
12:14 0 °C -2.7 °C 1008 hPa WNW 19.3 km/h 35.4 km/h 82% 5.6 mm
12:19 0.1 °C -2.7 °C 1008 hPa WNW 20.9 km/h 35.4 km/h 82% 5.6 mm
12:24 0.1 °C -2.6 °C 1008.4 hPa WNW 12.9 km/h 35.4 km/h 82% 5.6 mm
12:34 0.2 °C -2.7 °C 1008.4 hPa NW 9.7 km/h 25.7 km/h 81% 5.6 mm
12:39 0.2 °C -2.8 °C 1008.4 hPa WNW 22.5 km/h 35.4 km/h 80% 5.6 mm
12:44 0.3 °C -2.7 °C 1008.4 hPa WNW 14.5 km/h 35.4 km/h 80% 5.6 mm
12:49 0.4 °C -2.6 °C 1008.4 hPa WNW 14.5 km/h 30.6 km/h 80% 5.6 mm
12:54 0.6 °C -2.3 °C 1008.4 hPa NW 11.3 km/h 30.6 km/h 81% 5.6 mm
12:59 0.6 °C -2.3 °C 1008.7 hPa WNW 17.7 km/h 32.2 km/h 81% 5.8 mm
13:04 0.7 °C -2.4 °C 1009 hPa NW 16.1 km/h 32.2 km/h 80% 5.8 mm
13:14 0.6 °C -2.3 °C 1009 hPa NW 11.3 km/h 37 km/h 81% 5.8 mm
13:19 0.7 °C -2.6 °C 1009 hPa NW 16.1 km/h 29 km/h 79% 6.1 mm
13:24 0.7 °C -2.5 °C 1009.4 hPa WNW 19.3 km/h 33.8 km/h 79% 6.1 mm
13:34 1.1 °C -2.3 °C 1009.4 hPa NW 19.3 km/h 33.8 km/h 78% 6.4 mm
13:39 0.9 °C -2.3 °C 1009.4 hPa NW 9.7 km/h 33.8 km/h 79% 6.4 mm
13:44 0.7 °C -2.7 °C 1009.4 hPa WNW 14.5 km/h 25.7 km/h 78% 6.4 mm
13:49 0.6 °C -2.7 °C 1009.7 hPa WNW 11.3 km/h 25.7 km/h 79% 6.4 mm
13:54 0.6 °C -2.7 °C 1009.7 hPa WNW 14.5 km/h 25.7 km/h 79% 6.4 mm
13:59 0.6 °C -3 °C 1009.7 hPa WNW 14.5 km/h 25.7 km/h 77% 6.4 mm
14:04 0.6 °C -3 °C 1009.7 hPa WNW 11.3 km/h 25.7 km/h 77% 6.4 mm
14:09 0.6 °C -3 °C 1009.7 hPa NW 16.1 km/h 27.4 km/h 77% 6.4 mm
14:14 0.6 °C -3.1 °C 1010 hPa WNW 12.9 km/h 27.4 km/h 76% 6.4 mm
14:19 0.6 °C -3.3 °C 1010 hPa NW 17.7 km/h 30.6 km/h 75% 6.6 mm
14:24 0.7 °C -2.9 °C 1010 hPa NW 6.4 km/h 30.6 km/h 77% 6.6 mm
14:29 0.7 °C -3.2 °C 1010 hPa WNW 14.5 km/h 33.8 km/h 75% 6.6 mm
14:34 0.7 °C -3.2 °C 1010 hPa NW 11.3 km/h 33.8 km/h 75% 6.6 mm
14:39 0.8 °C -2.9 °C 1010.4 hPa NW 11.3 km/h 25.7 km/h 76% 6.6 mm
14:44 0.8 °C -3.2 °C 1010.4 hPa NW 9.7 km/h 29 km/h 75% 6.6 mm
14:49 0.8 °C -3.1 °C 1010.4 hPa NW 12.9 km/h 29 km/h 75% 6.6 mm
14:54 0.8 °C -3.2 °C 1010.4 hPa NW 6.4 km/h 27.4 km/h 75% 6.6 mm
14:59 0.8 °C -3.2 °C 1010.4 hPa NW 8 km/h 27.4 km/h 75% 6.6 mm
15:04 0.7 °C -3.4 °C 1010.4 hPa WNW 14.5 km/h 29 km/h 74% 6.9 mm
15:09 0.7 °C -3.4 °C 1010.7 hPa NNW 12.9 km/h 29 km/h 74% 6.9 mm
15:14 0.7 °C -3.4 °C 1010.7 hPa WNW 8 km/h 25.7 km/h 74% 6.9 mm
15:19 0.6 °C -3.7 °C 1010.7 hPa NW 16.1 km/h 27.4 km/h 73% 6.9 mm
15:24 0.5 °C -3.8 °C 1011.1 hPa NW 12.9 km/h 32.2 km/h 73% 6.9 mm
15:29 0.5 °C -3.8 °C 1011.1 hPa NW 9.7 km/h 32.2 km/h 73% 6.9 mm
15:34 0.5 °C -3.8 °C 1011.1 hPa NW 6.4 km/h 32.2 km/h 73% 6.9 mm
15:39 0.6 °C -3.7 °C 1011.1 hPa WNW 6.4 km/h 27.4 km/h 73% 6.9 mm
15:44 0.6 °C -3.7 °C 1011.1 hPa NW 6.4 km/h 20.9 km/h 73% 6.9 mm
15:49 0.6 °C -3.7 °C 1011.1 hPa NW 9.7 km/h 20.9 km/h 73% 6.9 mm
15:54 0.5 °C -3.9 °C 1011.4 hPa NW 16.1 km/h 24.1 km/h 72% 6.9 mm
15:59 0.4 °C -3.8 °C 1011.4 hPa NW 11.3 km/h 24.1 km/h 73% 6.9 mm
16:04 0.4 °C -3.8 °C 1011.4 hPa NW 8 km/h 24.1 km/h 73% 6.9 mm
16:09 0.4 °C -3.9 °C 1011.4 hPa WNW 11.3 km/h 24.1 km/h 73% 6.9 mm
16:14 0.4 °C -3.9 °C 1011.4 hPa WNW 11.3 km/h 22.5 km/h 73% 6.9 mm
16:19 0.4 °C -3.9 °C 1011.4 hPa NW 14.5 km/h 29 km/h 73% 6.9 mm
16:24 0.3 °C -3.8 °C 1011.7 hPa NW 9.7 km/h 29 km/h 74% 6.9 mm
16:29 0.3 °C -3.6 °C 1011.7 hPa WNW 11.3 km/h 27.4 km/h 75% 6.9 mm
16:34 0.3 °C -3.4 °C 1011.7 hPa WNW 6.4 km/h 24.1 km/h 76% 6.9 mm
16:39 0.3 °C -3.4 °C 1012.1 hPa WNW 9.7 km/h 24.1 km/h 76% 6.9 mm
16:44 0.2 °C -3.5 °C 1012.1 hPa West 14.5 km/h 24.1 km/h 76% 6.9 mm
16:49 0.2 °C -3.6 °C 1012.1 hPa WNW 12.9 km/h 22.5 km/h 76% 6.9 mm
16:54 0.2 °C -3.4 °C 1012.4 hPa WNW 8 km/h 22.5 km/h 77% 6.9 mm
16:59 0.2 °C -3.4 °C 1012.4 hPa WNW 9.7 km/h 19.3 km/h 77% 6.9 mm
17:04 0.2 °C -3.9 °C 1012.8 hPa WNW 17.7 km/h 27.4 km/h 74% 6.9 mm
17:09 0.2 °C -3.9 °C 1012.8 hPa WNW 9.7 km/h 27.4 km/h 74% 6.9 mm
17:14 0.2 °C -3.7 °C 1012.8 hPa NW 6.4 km/h 19.3 km/h 75% 6.9 mm
17:19 0.2 °C -3.9 °C 1013.1 hPa WNW 6.4 km/h 16.1 km/h 74% 6.9 mm
17:24 0.2 °C -3.9 °C 1013.1 hPa WNW 9.7 km/h 19.3 km/h 74% 6.9 mm
17:29 0.2 °C -3.9 °C 1013.1 hPa WNW 14.5 km/h 27.4 km/h 74% 6.9 mm
17:34 0.2 °C -4.1 °C 1013.1 hPa WNW 12.9 km/h 27.4 km/h 73% 6.9 mm
17:39 0.2 °C -4.1 °C 1013.1 hPa WNW 16.1 km/h 30.6 km/h 73% 6.9 mm
17:44 0.3 °C -4.2 °C 1013.1 hPa WNW 14.5 km/h 30.6 km/h 72% 6.9 mm
17:49 0.3 °C -4.1 °C 1013.1 hPa WNW 4.8 km/h 22.5 km/h 72% 6.9 mm
17:54 0.3 °C -4.1 °C 1013.4 hPa WNW 9.7 km/h 24.1 km/h 72% 6.9 mm
17:59 0.4 °C -4.1 °C 1013.4 hPa NW 8 km/h 24.1 km/h 72% 6.9 mm
18:04 0.4 °C -4.2 °C 1013.4 hPa NW 11.3 km/h 24.1 km/h 71% 6.9 mm
18:14 0.4 °C -4.6 °C 1013.8 hPa WNW 17.7 km/h 37 km/h 69% 6.9 mm
18:19 0.4 °C -4.4 °C 1013.8 hPa NW 11.3 km/h 37 km/h 70% 6.9 mm
18:24 0.4 °C -4.4 °C 1013.8 hPa WNW 14.5 km/h 29 km/h 70% 6.9 mm
18:29 0.3 °C -4.5 °C 1013.8 hPa WNW 14.5 km/h 32.2 km/h 70% 6.9 mm
18:34 0.3 °C -4.5 °C 1013.8 hPa NNW 12.9 km/h 32.2 km/h 70% 6.9 mm
18:44 0.2 °C -4.8 °C 1013.8 hPa NW 17.7 km/h 37 km/h 69% 6.9 mm
18:49 0.2 °C -4.7 °C 1013.8 hPa NW 11.3 km/h 35.4 km/h 70% 6.9 mm
18:54 0.1 °C -4.9 °C 1013.8 hPa NW 16.1 km/h 35.4 km/h 69% 6.9 mm
18:59 0 °C -5 °C 1014.1 hPa WNW 19.3 km/h 38.6 km/h 69% 6.9 mm
19:04 -0.1 °C -5.1 °C 1014.1 hPa NW 12.9 km/h 38.6 km/h 69% 6.9 mm
19:09 -0.1 °C -5.1 °C 1013.8 hPa WNW 11.3 km/h 27.4 km/h 69% 6.9 mm
19:14 -0.1 °C -5.1 °C 1014.1 hPa WNW 19.3 km/h 29 km/h 69% 6.9 mm
19:19 -0.1 °C -5.1 °C 1014.1 hPa WNW 19.3 km/h 29 km/h 69% 6.9 mm
19:24 -0.2 °C -5.2 °C 1014.4 hPa NW 16.1 km/h 29 km/h 69% 6.9 mm
19:29 -0.2 °C -5.4 °C 1014.4 hPa NW 19.3 km/h 37 km/h 68% 6.9 mm
19:34 -0.3 °C -5.4 °C 1014.4 hPa NW 14.5 km/h 37 km/h 68% 6.9 mm
19:39 -0.3 °C -5.5 °C 1014.4 hPa NW 9.7 km/h 32.2 km/h 68% 6.9 mm
19:44 -0.4 °C -5.6 °C 1014.8 hPa NW 16.1 km/h 33.8 km/h 68% 6.9 mm
19:49 -0.4 °C -6 °C 1014.8 hPa NW 14.5 km/h 33.8 km/h 66% 6.9 mm
19:54 -0.4 °C -5.8 °C 1014.8 hPa NW 17.7 km/h 37 km/h 67% 6.9 mm
19:59 -0.5 °C -5.9 °C 1014.8 hPa NW 12.9 km/h 37 km/h 67% 6.9 mm
20:04 -0.5 °C -5.7 °C 1015.1 hPa NW 12.9 km/h 27.4 km/h 68% 6.9 mm
20:09 -0.5 °C -5.9 °C 1015.1 hPa NW 17.7 km/h 40.2 km/h 67% 6.9 mm
20:14 -0.5 °C -5.7 °C 1015.1 hPa NNW 8 km/h 40.2 km/h 68% 6.9 mm
20:19 -0.5 °C -5.9 °C 1015.1 hPa NW 16.1 km/h 38.6 km/h 67% 6.9 mm
20:24 -0.5 °C -6.1 °C 1015.1 hPa NW 14.5 km/h 35.4 km/h 66% 6.9 mm
20:29 -0.6 °C -6.1 °C 1015.5 hPa NW 11.3 km/h 29 km/h 66% 6.9 mm
20:34 -0.6 °C -6.1 °C 1015.5 hPa NW 17.7 km/h 33.8 km/h 66% 6.9 mm
20:39 -0.5 °C -5.9 °C 1015.5 hPa NW 14.5 km/h 33.8 km/h 67% 6.9 mm
20:44 -0.6 °C -5.7 °C 1015.8 hPa NW 16.1 km/h 37 km/h 68% 6.9 mm
20:49 -0.6 °C -5.4 °C 1015.8 hPa NW 6.4 km/h 37 km/h 70% 6.9 mm
20:54 -0.7 °C -5.3 °C 1015.8 hPa NW 9.7 km/h 25.7 km/h 71% 6.9 mm
20:59 -0.8 °C -5.4 °C 1015.8 hPa NW 12.9 km/h 30.6 km/h 71% 6.9 mm
21:04 -0.9 °C -5.3 °C 1016.1 hPa NW 8 km/h 30.6 km/h 72% 6.9 mm
21:09 -0.9 °C -5.2 °C 1016.1 hPa NNW 4.8 km/h 22.5 km/h 73% 6.9 mm
21:14 -1 °C -5.4 °C 1016.1 hPa NW 4.8 km/h 20.9 km/h 72% 6.9 mm
21:19 -1 °C -5.4 °C 1016.1 hPa WNW 6.4 km/h 20.9 km/h 72% 6.9 mm
21:24 -0.9 °C -5.7 °C 1016.5 hPa NNW 11.3 km/h 29 km/h 70% 6.9 mm
21:34 -0.9 °C -5.6 °C 1016.5 hPa NNW 12.9 km/h 24.1 km/h 71% 6.9 mm
21:39 -0.9 °C -5.7 °C 1016.5 hPa NW 11.3 km/h 25.7 km/h 70% 6.9 mm
21:44 -0.9 °C -5.6 °C 1016.5 hPa NW 14.5 km/h 25.7 km/h 71% 6.9 mm
21:49 -1 °C -5.4 °C 1016.5 hPa NW 17.7 km/h 33.8 km/h 72% 6.9 mm
21:54 -1.1 °C -5.2 °C 1016.8 hPa NNW 12.9 km/h 33.8 km/h 74% 6.9 mm
21:59 -1.3 °C -5.1 °C 1016.8 hPa NW 6.4 km/h 27.4 km/h 75% 6.9 mm
22:04 -1.3 °C -5.7 °C 1016.8 hPa NNW 12.9 km/h 29 km/h 72% 6.9 mm
22:09 -1.3 °C -5.8 °C 1016.8 hPa WNW 16.1 km/h 32.2 km/h 71% 6.9 mm
22:14 -1.3 °C -6.1 °C 1016.8 hPa NW 6.4 km/h 32.2 km/h 70% 6.9 mm
22:19 -1.3 °C -6.1 °C 1016.8 hPa NNW 12.9 km/h 33.8 km/h 70% 6.9 mm
22:24 -1.3 °C -6.1 °C 1016.8 hPa NNW 9.7 km/h 33.8 km/h 70% 6.9 mm
22:29 -1.3 °C -6.1 °C 1017.2 hPa NNW 9.7 km/h 25.7 km/h 70% 6.9 mm
22:34 -1.3 °C -6.4 °C 1017.2 hPa NW 19.3 km/h 32.2 km/h 68% 6.9 mm
22:39 -1.3 °C -6.6 °C 1017.2 hPa NW 16.1 km/h 37 km/h 67% 6.9 mm
22:44 -1.2 °C -6.6 °C 1017.5 hPa NW 16.1 km/h 37 km/h 67% 6.9 mm
22:49 -1.3 °C -6.6 °C 1017.5 hPa NW 11.3 km/h 30.6 km/h 67% 6.9 mm
22:54 -1.3 °C -6.8 °C 1017.5 hPa NNW 16.1 km/h 32.2 km/h 66% 6.9 mm
22:59 -1.3 °C -6.6 °C 1017.5 hPa NW 9.7 km/h 32.2 km/h 67% 6.9 mm
23:04 -1.3 °C -6.7 °C 1017.5 hPa NNW 14.5 km/h 27.4 km/h 67% 6.9 mm
23:09 -1.4 °C -6.6 °C 1017.8 hPa NNW 12.9 km/h 27.4 km/h 68% 6.9 mm
23:14 -1.5 °C -6.3 °C 1017.8 hPa NNW 11.3 km/h 27.4 km/h 70% 6.9 mm
23:19 -1.6 °C -6.4 °C 1017.8 hPa NW 12.9 km/h 29 km/h 70% 6.9 mm
23:24 -1.7 °C -6.6 °C 1017.8 hPa NW 17.7 km/h 29 km/h 69% 6.9 mm
23:29 -1.7 °C -6.6 °C 1017.8 hPa NW 17.7 km/h 40.2 km/h 69% 6.9 mm
23:34 -1.7 °C -6.5 °C 1017.8 hPa NW 9.7 km/h 40.2 km/h 70% 6.9 mm
23:39 -1.7 °C -6.5 °C 1017.8 hPa NW 9.7 km/h 29 km/h 70% 6.9 mm
23:44 -1.7 °C -6.5 °C 1018.2 hPa NNW 12.9 km/h 30.6 km/h 70% 6.9 mm
23:54 -1.8 °C -6.5 °C 1018.2 hPa NNW 6.4 km/h 27.4 km/h 70% 6.9 mm
23:59 -1.8 °C -6.5 °C 1018.2 hPa NW 14.5 km/h 29 km/h 70% 6.9 mm
Westford Weather
Compliments of Weather Underground

 
 
Current Radar Loop:

Copyright © WestfordWeather.net 2007-2014. All rights reserved.